createdAt,value
2023-01-28T00:01:39.501Z,19.67
2023-01-28T00:04:06.820Z,18.75
2023-01-28T00:06:34.609Z,17.23
2023-01-28T00:09:03.291Z,17.85
2023-01-28T00:11:30.439Z,19.23
2023-01-28T00:13:58.052Z,16.40
2023-01-28T00:16:27.265Z,29.13
2023-01-28T00:18:54.972Z,9.80
2023-01-28T00:21:24.535Z,14.52
2023-01-28T00:23:54.899Z,11.85
2023-01-28T00:26:23.109Z,10.18
2023-01-28T00:28:50.618Z,13.45
2023-01-28T00:31:23.042Z,22.33
2023-01-28T00:33:51.516Z,19.95
2023-01-28T00:36:20.150Z,15.57
2023-01-28T00:38:56.554Z,9.18
2023-01-28T00:43:52.702Z,9.68
2023-01-28T00:46:21.511Z,36.90
2023-01-28T00:48:49.365Z,22.20
2023-01-28T00:51:18.134Z,9.10
2023-01-28T00:53:45.733Z,12.40
2023-01-28T00:56:15.454Z,9.68
2023-01-28T00:58:43.649Z,7.53
2023-01-28T01:01:24.592Z,24.73
2023-01-28T01:04:03.038Z,8.05
2023-01-28T01:06:35.362Z,13.68
2023-01-28T01:09:08.241Z,11.05
2023-01-28T01:11:35.796Z,11.45
2023-01-28T01:14:05.361Z,45.15
2023-01-28T01:16:33.541Z,12.88
2023-01-28T01:19:01.402Z,11.25
2023-01-28T01:21:30.130Z,11.48
2023-01-28T01:23:58.025Z,10.48
2023-01-28T01:26:27.411Z,10.55
2023-01-28T01:28:55.061Z,18.73
2023-01-28T01:31:22.897Z,12.98
2023-01-28T01:33:52.205Z,14.43
2023-01-28T01:36:21.887Z,10.77
2023-01-28T01:38:54.907Z,12.48
2023-01-28T01:41:31.789Z,10.85
2023-01-28T01:44:00.571Z,10.40
2023-01-28T01:46:43.891Z,22.23
2023-01-28T01:49:22.275Z,17.95
2023-01-28T01:51:53.266Z,9.82
2023-01-28T01:54:24.172Z,11.98
2023-01-28T01:56:52.709Z,12.68
2023-01-28T01:59:24.841Z,9.20
2023-01-28T02:01:53.614Z,13.70
2023-01-28T02:04:28.940Z,15.45
2023-01-28T02:09:32.442Z,11.70
2023-01-28T02:12:07.428Z,14.90
2023-01-28T02:14:39.534Z,10.30
2023-01-28T02:17:07.346Z,9.30
2023-01-28T02:19:42.944Z,10.57
2023-01-28T02:22:25.247Z,9.05
2023-01-28T02:25:35.205Z,9.30
2023-01-28T02:28:26.590Z,8.18
2023-01-28T02:31:12.712Z,9.20
2023-01-28T02:33:43.203Z,8.80
2023-01-28T02:36:26.763Z,10.45
2023-01-28T02:38:57.951Z,11.98
2023-01-28T02:41:40.802Z,12.73
2023-01-28T02:44:09.109Z,13.57
2023-01-28T02:46:56.747Z,9.30
2023-01-28T02:49:41.853Z,9.85
2023-01-28T02:55:04.609Z,8.18
2023-01-28T02:57:48.226Z,7.88
2023-01-28T03:00:15.684Z,8.38
2023-01-28T03:03:27.244Z,10.63
2023-01-28T03:06:09.055Z,9.05
2023-01-28T03:08:55.510Z,8.10
2023-01-28T03:11:42.332Z,7.70
2023-01-28T03:14:29.755Z,8.45
2023-01-28T03:17:18.340Z,9.90
2023-01-28T03:20:05.373Z,8.13
2023-01-28T03:22:55.909Z,10.60
2023-01-28T03:25:45.713Z,12.43
2023-01-28T03:28:36.903Z,12.23
2023-01-28T03:31:25.593Z,12.77
2023-01-28T03:34:17.193Z,8.23
2023-01-28T03:36:53.391Z,13.95
2023-01-28T03:39:47.153Z,112.00
2023-01-28T03:42:18.780Z,21.30
2023-01-28T03:45:08.047Z,13.30
2023-01-28T03:47:36.237Z,30.48
2023-01-28T03:50:06.763Z,68.57
2023-01-28T03:52:41.232Z,23.38
2023-01-28T03:55:27.115Z,11.57
2023-01-28T03:57:56.928Z,10.90
2023-01-28T04:00:24.068Z,8.02
2023-01-28T04:02:51.528Z,9.25
2023-01-28T04:05:21.387Z,8.77
2023-01-28T04:07:51.660Z,7.28
2023-01-28T04:10:41.701Z,8.05
2023-01-28T04:13:21.232Z,10.93
2023-01-28T04:15:48.938Z,10.70
2023-01-28T04:18:17.251Z,9.30
2023-01-28T04:20:45.776Z,11.68
2023-01-28T04:23:13.582Z,8.30
2023-01-28T04:25:41.671Z,8.93
2023-01-28T04:28:10.029Z,8.77
2023-01-28T04:30:37.406Z,10.98
2023-01-28T04:33:24.986Z,6.68
2023-01-28T04:35:54.906Z,9.73
2023-01-28T04:38:42.344Z,9.50
2023-01-28T04:41:44.983Z,9.80
2023-01-28T04:44:21.491Z,10.15
2023-01-28T04:47:07.486Z,9.93
2023-01-28T04:49:57.902Z,18.73
2023-01-28T04:52:40.948Z,18.60
2023-01-28T04:55:24.621Z,10.38
2023-01-28T04:57:51.870Z,7.50
2023-01-28T05:00:19.715Z,8.82
2023-01-28T05:02:47.078Z,9.25
2023-01-28T05:05:14.908Z,9.68
2023-01-28T05:08:02.973Z,9.30
2023-01-28T05:10:30.746Z,7.68
2023-01-28T05:12:58.220Z,9.38
2023-01-28T05:15:26.035Z,9.25
2023-01-28T05:17:56.260Z,14.77
2023-01-28T05:20:24.533Z,14.50
2023-01-28T05:22:54.920Z,12.93
2023-01-28T05:25:27.738Z,12.25
2023-01-28T05:27:55.187Z,8.80
2023-01-28T05:30:22.781Z,8.25
2023-01-28T05:32:50.373Z,22.63
2023-01-28T05:35:22.528Z,17.42
2023-01-28T05:37:50.153Z,8.05
2023-01-28T05:40:19.017Z,6.78
2023-01-28T05:42:46.119Z,6.65
2023-01-28T05:45:32.189Z,6.88
2023-01-28T05:48:02.688Z,7.93
2023-01-28T05:50:50.056Z,8.73
2023-01-28T05:53:21.795Z,9.52
2023-01-28T05:55:53.416Z,7.65
2023-01-28T05:58:21.583Z,16.08
2023-01-28T06:00:48.985Z,10.68
2023-01-28T06:03:20.378Z,8.55
2023-01-28T06:05:48.870Z,9.32
2023-01-28T06:08:16.427Z,19.48
2023-01-28T06:10:44.153Z,500.45
2023-01-28T06:13:11.420Z,266.35
2023-01-28T06:15:57.456Z,217.88
2023-01-28T06:18:43.201Z,394.67
2023-01-28T06:21:10.572Z,218.77
2023-01-28T06:23:37.563Z,28.05
2023-01-28T06:26:08.811Z,333.45
2023-01-28T06:28:39.042Z,24.50
2023-01-28T06:31:06.475Z,20.45
2023-01-28T06:33:33.945Z,10.30
2023-01-28T06:36:06.723Z,14.77
2023-01-28T06:38:35.089Z,13.20
2023-01-28T06:41:02.438Z,15.50
2023-01-28T06:43:30.724Z,17.88
2023-01-28T06:45:58.411Z,8.75
2023-01-28T06:48:26.437Z,14.68
2023-01-28T06:50:54.311Z,12.50
2023-01-28T06:53:21.887Z,35.75
2023-01-28T06:55:49.484Z,9.63
2023-01-28T06:58:16.781Z,24.70
2023-01-28T07:00:44.080Z,18.60
2023-01-28T07:03:11.239Z,61.42
2023-01-28T07:05:39.053Z,43.10
2023-01-28T07:08:06.530Z,12.32
2023-01-28T07:10:33.910Z,7.30
2023-01-28T07:13:00.909Z,11.55
2023-01-28T07:15:28.242Z,9.93
2023-01-28T07:17:55.710Z,10.52
2023-01-28T07:20:22.988Z,10.32
2023-01-28T07:22:50.279Z,7.78
2023-01-28T07:25:19.407Z,10.98
2023-01-28T07:27:53.661Z,12.18
2023-01-28T07:30:21.397Z,19.20
2023-01-28T07:32:54.563Z,24.77
2023-01-28T07:35:22.049Z,14.90
2023-01-28T07:37:56.921Z,9.10
2023-01-28T07:40:25.720Z,10.55
2023-01-28T07:42:55.257Z,10.63
2023-01-28T07:45:24.417Z,10.80
2023-01-28T07:47:59.200Z,11.23
2023-01-28T07:52:54.164Z,12.45
2023-01-28T07:55:21.765Z,12.05
2023-01-28T07:57:57.450Z,30.10
2023-01-28T08:00:28.053Z,16.40
2023-01-28T08:03:00.064Z,18.85
2023-01-28T08:05:41.171Z,19.20
2023-01-28T08:08:09.903Z,47.75
2023-01-28T08:10:39.565Z,14.63
2023-01-28T08:13:07.506Z,16.10
2023-01-28T08:15:35.642Z,31.05
2023-01-28T08:18:07.329Z,39.25
2023-01-28T08:20:35.114Z,16.40
2023-01-28T08:23:18.483Z,12.50
2023-01-28T08:25:47.316Z,24.70
2023-01-28T08:28:16.211Z,31.70
2023-01-28T08:30:43.815Z,18.95
2023-01-28T08:33:12.579Z,19.00
2023-01-28T08:35:40.036Z,19.38
2023-01-28T08:38:08.260Z,194.15
2023-01-28T08:40:36.410Z,83.53
2023-01-28T08:43:04.217Z,103.93
2023-01-28T08:45:32.154Z,83.03
2023-01-28T08:48:07.616Z,85.78
2023-01-28T08:50:40.400Z,52.80
2023-01-28T08:53:12.598Z,108.90
2023-01-28T08:55:40.293Z,49.70
2023-01-28T08:58:11.523Z,103.75
2023-01-28T09:00:39.757Z,39.63
2023-01-28T09:03:09.247Z,41.42
2023-01-28T09:05:38.339Z,25.25
2023-01-28T09:08:14.337Z,18.27
2023-01-28T09:10:42.910Z,26.75
2023-01-28T09:13:13.326Z,46.72
2023-01-28T09:15:40.835Z,17.80
2023-01-28T09:18:08.445Z,45.00
2023-01-28T09:20:36.851Z,30.15
2023-01-28T09:23:04.841Z,46.05
2023-01-28T09:25:33.167Z,45.72
2023-01-28T09:28:00.193Z,55.90
2023-01-28T09:30:28.087Z,52.30
2023-01-28T09:32:58.114Z,19.30
2023-01-28T09:35:25.577Z,61.70
2023-01-28T09:37:56.612Z,65.88
2023-01-28T09:40:31.667Z,65.78
2023-01-28T09:42:59.080Z,29.40
2023-01-28T09:45:50.857Z,121.20
2023-01-28T09:48:32.864Z,36.47
2023-01-28T09:51:01.976Z,22.02
2023-01-28T09:53:32.324Z,68.75
2023-01-28T09:56:11.468Z,56.42
2023-01-28T09:58:38.654Z,232.82
2023-01-28T10:01:27.751Z,23.35
2023-01-28T10:04:16.471Z,17.98
2023-01-28T10:07:22.814Z,16.40
2023-01-28T10:10:19.915Z,32.85
2023-01-28T10:12:55.353Z,45.97
2023-01-28T10:15:49.709Z,19.02
2023-01-28T10:18:29.526Z,55.65
2023-01-28T10:21:03.394Z,51.22
2023-01-28T10:23:53.002Z,43.90
2023-01-28T10:26:36.691Z,39.72
2023-01-28T10:29:18.213Z,67.38
2023-01-28T10:32:22.645Z,26.80
2023-01-28T10:34:51.914Z,29.40
2023-01-28T10:37:19.676Z,18.27
2023-01-28T10:39:48.331Z,18.55
2023-01-28T10:42:41.770Z,58.42
2023-01-28T10:45:36.341Z,50.80
2023-01-28T10:48:29.095Z,82.03
2023-01-28T10:51:02.714Z,55.92
2023-01-28T10:53:36.079Z,54.22
2023-01-28T10:56:06.464Z,28.10
2023-01-28T10:58:37.091Z,41.03
2023-01-28T11:01:08.618Z,41.97
2023-01-28T11:03:36.267Z,21.95
2023-01-28T11:06:03.949Z,15.95
2023-01-28T11:08:31.917Z,20.17
2023-01-28T11:10:59.710Z,17.05
2023-01-28T11:13:29.002Z,14.45
2023-01-28T11:16:04.058Z,13.77
2023-01-28T11:18:39.992Z,13.48
2023-01-28T11:21:29.287Z,18.40
2023-01-28T11:24:03.643Z,12.63
2023-01-28T11:26:38.685Z,13.68
2023-01-28T11:29:24.326Z,24.67
2023-01-28T11:31:52.237Z,21.55
2023-01-28T11:34:20.547Z,23.55
2023-01-28T11:37:13.215Z,126.05
2023-01-28T11:39:40.389Z,69.03
2023-01-28T11:42:19.312Z,18.75
2023-01-28T11:44:48.289Z,19.85
2023-01-28T11:47:55.738Z,29.48
2023-01-28T11:50:35.528Z,22.25
2023-01-28T11:53:40.327Z,28.77
2023-01-28T11:56:18.849Z,513.05
2023-01-28T11:59:05.111Z,86.82
2023-01-28T12:02:14.004Z,36.25
2023-01-28T12:04:53.508Z,51.15
2023-01-28T12:07:43.513Z,119.63
2023-01-28T12:10:40.299Z,52.05
2023-01-28T12:13:20.210Z,67.90
2023-01-28T12:16:03.900Z,92.25
2023-01-28T12:18:55.518Z,47.95
2023-01-28T12:21:22.823Z,50.75
2023-01-28T12:24:05.157Z,65.32
2023-01-28T12:26:35.754Z,106.70
2023-01-28T12:29:29.938Z,89.55
2023-01-28T12:32:31.606Z,88.30
2023-01-28T12:35:17.835Z,33.28
2023-01-28T12:38:06.186Z,54.72
2023-01-28T12:40:45.159Z,94.65
2023-01-28T12:43:16.448Z,60.88
2023-01-28T12:45:53.687Z,59.72
2023-01-28T12:48:27.200Z,83.97
2023-01-28T12:51:03.660Z,71.28
2023-01-28T12:53:52.053Z,66.72
2023-01-28T12:56:32.099Z,58.63
2023-01-28T12:59:05.468Z,59.05
2023-01-28T13:01:45.081Z,31.23
2023-01-28T13:04:43.787Z,93.82
2023-01-28T13:07:10.869Z,123.45
2023-01-28T13:09:49.642Z,51.13
2023-01-28T13:12:18.858Z,23.27
2023-01-28T13:14:52.664Z,35.55
2023-01-28T13:17:32.495Z,30.55
2023-01-28T13:20:01.220Z,30.58
2023-01-28T13:22:37.680Z,46.10
2023-01-28T13:25:27.958Z,35.15
2023-01-28T13:28:06.086Z,18.55
2023-01-28T13:30:47.562Z,37.90
2023-01-28T13:33:31.274Z,53.30
2023-01-28T13:36:10.877Z,24.25
2023-01-28T13:38:38.528Z,137.23
2023-01-28T13:41:06.605Z,208.82
2023-01-28T13:43:40.619Z,334.98
2023-01-28T13:46:14.223Z,248.75
2023-01-28T13:48:52.122Z,39.05
2023-01-28T13:51:33.413Z,80.45
2023-01-28T13:54:05.068Z,485.48
2023-01-28T13:56:55.606Z,398.08
2023-01-28T13:59:51.854Z,76.82
2023-01-28T14:02:49.744Z,484.55
2023-01-28T14:05:46.520Z,439.08
2023-01-28T14:08:55.860Z,168.75
2023-01-28T14:11:54.876Z,157.13
2023-01-28T14:14:31.061Z,125.25
2023-01-28T14:16:58.533Z,139.82
2023-01-28T14:19:31.437Z,50.53
2023-01-28T14:22:06.779Z,61.30
2023-01-28T14:24:38.631Z,76.93
2023-01-28T14:27:38.840Z,58.05
2023-01-28T14:30:12.297Z,151.23
2023-01-28T14:32:47.390Z,123.35
2023-01-28T14:35:30.628Z,89.25
2023-01-28T14:37:59.285Z,80.70
2023-01-28T14:40:30.123Z,90.00
2023-01-28T14:42:58.615Z,77.68
2023-01-28T14:45:47.189Z,74.15
2023-01-28T14:48:32.884Z,118.78
2023-01-28T14:51:00.781Z,106.18
2023-01-28T14:53:46.512Z,145.23
2023-01-28T14:56:22.450Z,93.05
2023-01-28T14:58:54.994Z,555.22
2023-01-28T15:01:25.623Z,212.65
2023-01-28T15:03:53.476Z,355.02
2023-01-28T15:06:26.479Z,593.42
2023-01-28T15:08:54.172Z,606.25
2023-01-28T15:11:26.002Z,277.38
2023-01-28T15:13:57.953Z,194.15
2023-01-28T15:16:31.816Z,105.47
2023-01-28T15:19:01.773Z,65.53
2023-01-28T15:21:30.334Z,79.22
2023-01-28T15:23:59.868Z,61.90
2023-01-28T15:26:35.048Z,77.63
2023-01-28T15:29:02.911Z,62.85
2023-01-28T15:31:33.997Z,34.65
2023-01-28T15:34:15.562Z,41.17
2023-01-28T15:36:43.418Z,42.70
2023-01-28T15:39:21.712Z,33.72
2023-01-28T15:42:03.400Z,48.05
2023-01-28T15:44:37.253Z,28.95
2023-01-28T15:47:26.973Z,41.20
2023-01-28T15:49:57.431Z,51.60
2023-01-28T15:52:36.596Z,46.75
2023-01-28T15:55:05.108Z,49.53
2023-01-28T15:57:36.792Z,55.60
2023-01-28T16:00:06.691Z,76.78
2023-01-28T16:02:47.989Z,55.45
2023-01-28T16:05:32.486Z,56.72
2023-01-28T16:08:07.305Z,39.60
2023-01-28T16:10:39.745Z,34.25
2023-01-28T16:13:22.269Z,36.50
2023-01-28T16:15:52.853Z,19.00
2023-01-28T16:18:51.867Z,26.13
2023-01-28T16:21:45.671Z,57.95
2023-01-28T16:24:27.776Z,37.22
2023-01-28T16:27:02.935Z,30.33
2023-01-28T16:29:31.554Z,29.48
2023-01-28T16:31:59.994Z,52.75
2023-01-28T16:34:28.131Z,37.25
2023-01-28T16:37:01.901Z,30.77
2023-01-28T16:39:31.677Z,21.20
2023-01-28T16:41:59.218Z,31.90
2023-01-28T16:44:28.829Z,141.90
2023-01-28T16:46:58.223Z,148.00
2023-01-28T16:49:25.792Z,271.27
2023-01-28T16:51:53.293Z,250.70
2023-01-28T16:54:23.641Z,197.55
2023-01-28T16:56:51.110Z,219.85
2023-01-28T16:59:18.517Z,313.45
2023-01-28T17:01:46.832Z,126.57
2023-01-28T17:04:14.587Z,106.60
2023-01-28T17:06:44.590Z,104.47
2023-01-28T17:09:19.339Z,60.05
2023-01-28T17:11:46.522Z,50.55
2023-01-28T17:14:14.319Z,73.45
2023-01-28T17:16:41.873Z,82.80
2023-01-28T17:19:09.707Z,63.00
2023-01-28T17:21:37.471Z,59.10
2023-01-28T17:24:05.618Z,49.30
2023-01-28T17:26:36.746Z,34.25
2023-01-28T17:29:05.758Z,24.60
2023-01-28T17:31:35.385Z,27.90
2023-01-28T17:34:03.163Z,34.53
2023-01-28T17:36:30.389Z,25.33
2023-01-28T17:38:57.688Z,31.63
2023-01-28T17:41:24.805Z,26.92
2023-01-28T17:43:53.673Z,30.08
2023-01-28T17:46:22.199Z,23.73
2023-01-28T17:48:49.970Z,25.65
2023-01-28T17:51:17.660Z,50.42
2023-01-28T17:53:52.883Z,45.88
2023-01-28T17:56:22.437Z,29.80
2023-01-28T17:59:06.523Z,45.30
2023-01-28T18:01:37.158Z,35.45
2023-01-28T18:04:04.869Z,31.58
2023-01-28T18:06:33.341Z,32.80
2023-01-28T18:09:00.737Z,71.45
2023-01-28T18:11:28.806Z,137.38
2023-01-28T18:13:58.572Z,94.13
2023-01-28T18:16:25.606Z,60.03
2023-01-28T18:18:53.228Z,84.78
2023-01-28T18:21:51.836Z,72.15
2023-01-28T18:24:21.689Z,75.03
2023-01-28T18:26:49.305Z,63.80
2023-01-28T18:29:20.880Z,50.10
2023-01-28T18:31:48.873Z,46.13
2023-01-28T18:34:17.690Z,34.05
2023-01-28T18:36:44.908Z,45.97
2023-01-28T18:39:13.924Z,36.33
2023-01-28T18:41:41.104Z,40.45
2023-01-28T18:44:12.322Z,66.95
2023-01-28T18:46:39.933Z,52.53
2023-01-28T18:49:07.713Z,34.70
2023-01-28T18:51:35.212Z,92.10
2023-01-28T18:54:04.723Z,36.30
2023-01-28T18:56:33.017Z,26.48
2023-01-28T18:59:02.642Z,36.33
2023-01-28T19:01:31.360Z,31.20
2023-01-28T19:03:59.495Z,83.78
2023-01-28T19:06:28.892Z,45.13
2023-01-28T19:09:00.200Z,40.15
2023-01-28T19:11:30.817Z,40.80
2023-01-28T19:13:58.781Z,52.20
2023-01-28T19:16:26.336Z,80.68
2023-01-28T19:18:55.554Z,58.88
2023-01-28T19:21:24.904Z,148.43
2023-01-28T19:24:01.126Z,143.70
2023-01-28T19:26:31.127Z,152.32
2023-01-28T19:29:02.334Z,131.90
2023-01-28T19:31:29.781Z,143.27
2023-01-28T19:34:02.575Z,121.28
2023-01-28T19:36:32.812Z,102.20
2023-01-28T19:39:06.234Z,114.45
2023-01-28T19:41:33.881Z,124.95
2023-01-28T19:44:01.575Z,91.07
2023-01-28T19:46:28.883Z,77.82
2023-01-28T19:48:56.909Z,122.63
2023-01-28T19:51:24.493Z,87.82
2023-01-28T19:53:55.758Z,71.90
2023-01-28T19:56:25.038Z,57.72
2023-01-28T19:58:54.103Z,46.95
2023-01-28T20:01:27.950Z,42.00
2023-01-28T20:03:59.966Z,34.42
2023-01-28T20:06:29.470Z,39.35
2023-01-28T20:09:00.382Z,40.20
2023-01-28T20:11:27.768Z,43.03
2023-01-28T20:13:55.803Z,45.25
2023-01-28T20:16:28.676Z,35.75
2023-01-28T20:19:07.344Z,52.28
2023-01-28T20:21:35.829Z,73.05
2023-01-28T20:24:04.532Z,73.70
2023-01-28T20:26:34.589Z,50.50
2023-01-28T20:29:11.441Z,53.70
2023-01-28T20:31:39.937Z,48.78
2023-01-28T20:34:15.018Z,74.00
2023-01-28T20:36:42.888Z,100.53
2023-01-28T20:39:10.771Z,82.72
2023-01-28T20:41:38.052Z,102.80
2023-01-28T20:44:05.559Z,68.22
2023-01-28T20:46:35.832Z,58.55
2023-01-28T20:49:06.078Z,62.38
2023-01-28T20:51:35.891Z,74.60
2023-01-28T20:54:03.978Z,75.05
2023-01-28T20:56:31.751Z,60.90
2023-01-28T20:59:02.291Z,91.22
2023-01-28T21:01:34.153Z,86.80
2023-01-28T21:04:02.011Z,55.17
2023-01-28T21:06:32.803Z,44.97
2023-01-28T21:09:03.587Z,66.03
2023-01-28T21:11:31.009Z,54.83
2023-01-28T21:13:58.375Z,55.85
2023-01-28T21:16:26.050Z,62.53
2023-01-28T21:18:53.993Z,73.60
2023-01-28T21:21:21.413Z,50.42
2023-01-28T21:23:49.616Z,77.40
2023-01-28T21:26:16.805Z,61.90
2023-01-28T21:28:44.895Z,74.50
2023-01-28T21:31:19.479Z,115.25
2023-01-28T21:33:57.484Z,62.13
2023-01-28T21:36:25.693Z,55.83
2023-01-28T21:38:57.990Z,48.33
2023-01-28T21:41:25.569Z,47.55
2023-01-28T21:43:54.372Z,36.13
2023-01-28T21:46:22.574Z,33.45
2023-01-28T21:48:50.389Z,34.35
2023-01-28T21:51:35.928Z,36.78
2023-01-28T21:54:04.878Z,29.38
2023-01-28T21:56:32.040Z,28.95
2023-01-28T21:59:18.136Z,24.27
2023-01-28T22:01:45.373Z,23.17
2023-01-28T22:04:15.764Z,24.50
2023-01-28T22:06:43.021Z,31.33
2023-01-28T22:09:14.497Z,25.02
2023-01-28T22:11:43.200Z,25.10
2023-01-28T22:14:10.746Z,28.00
2023-01-28T22:16:38.711Z,40.58
2023-01-28T22:19:06.799Z,31.40
2023-01-28T22:21:37.533Z,31.95
2023-01-28T22:24:07.340Z,34.97
2023-01-28T22:26:34.377Z,33.55
2023-01-28T22:29:04.821Z,40.92
2023-01-28T22:31:32.254Z,33.03
2023-01-28T22:34:02.838Z,32.42
2023-01-28T22:36:30.428Z,31.95
2023-01-28T22:39:05.535Z,29.90
2023-01-28T22:41:33.088Z,30.88
2023-01-28T22:44:10.241Z,29.45
2023-01-28T22:46:37.545Z,28.95
2023-01-28T22:49:05.553Z,56.95
2023-01-28T22:51:34.967Z,41.22
2023-01-28T22:54:02.810Z,40.50
2023-01-28T22:56:34.207Z,38.85
2023-01-28T22:59:03.183Z,40.60
2023-01-28T23:01:31.303Z,37.67
2023-01-28T23:03:59.278Z,43.70
2023-01-28T23:06:30.269Z,38.72
2023-01-28T23:08:57.938Z,35.80
2023-01-28T23:11:25.774Z,39.30
2023-01-28T23:14:14.120Z,38.70
2023-01-28T23:17:00.155Z,38.75
2023-01-28T23:19:45.983Z,37.33
2023-01-28T23:24:59.946Z,35.22
2023-01-28T23:27:27.041Z,30.90
2023-01-28T23:29:54.333Z,64.10
2023-01-28T23:32:22.425Z,54.35
2023-01-28T23:34:50.835Z,36.15
2023-01-28T23:37:18.210Z,36.75
2023-01-28T23:39:45.535Z,29.33
2023-01-28T23:42:17.860Z,34.08
2023-01-28T23:44:45.520Z,32.42
2023-01-28T23:47:13.421Z,32.20
2023-01-28T23:49:41.425Z,36.05
2023-01-28T23:52:09.429Z,39.13
2023-01-28T23:54:37.204Z,50.22
2023-01-28T23:57:05.974Z,71.88
2023-01-28T23:59:33.977Z,67.85
